sensor_id;sensor_type;location;lat;lon;timestamp;pressure;altitude;pressure_sealevel;temperature;humidity
71567;BME280;59403;47.456;19.120;2023-02-01T00:00:32;100473.47;;;2.35;100.00
71567;BME280;59403;47.456;19.120;2023-02-01T00:03:00;100479.44;;;2.37;100.00
71567;BME280;59403;47.456;19.120;2023-02-01T00:05:27;100483.72;;;2.38;100.00
71567;BME280;59403;47.456;19.120;2023-02-01T00:07:53;100479.44;;;2.37;100.00
71567;BME280;59403;47.456;19.120;2023-02-01T00:10:20;100490.63;;;2.39;100.00
71567;BME280;59403;47.456;19.120;2023-02-01T00:12:52;100486.25;;;2.40;100.00
71567;BME280;59403;47.456;19.120;2023-02-01T00:15:20;100484.56;;;2.39;100.00
71567;BME280;59403;47.456;19.120;2023-02-01T00:17:55;100489.78;;;2.39;100.00
71567;BME280;59403;47.456;19.120;2023-02-01T00:20:24;100480.41;;;2.36;100.00
71567;BME280;59403;47.456;19.120;2023-02-01T00:22:51;100483.72;;;2.38;100.00
71567;BME280;59403;47.456;19.120;2023-02-01T00:25:18;100471.59;;;2.37;100.00
71567;BME280;59403;47.456;19.120;2023-02-01T00:27:48;100477.69;;;2.38;100.00
71567;BME280;59403;47.456;19.120;2023-02-01T00:30:16;100470.75;;;2.37;100.00
71567;BME280;59403;47.456;19.120;2023-02-01T00:32:44;100476.84;;;2.37;100.00
71567;BME280;59403;47.456;19.120;2023-02-01T00:35:12;100476.72;;;2.39;100.00
71567;BME280;59403;47.456;19.120;2023-02-01T00:37:39;100467.44;;;2.35;100.00
71567;BME280;59403;47.456;19.120;2023-02-01T00:40:07;100483.66;;;2.40;100.00
71567;BME280;59403;47.456;19.120;2023-02-01T00:42:34;100485.41;;;2.39;100.00
71567;BME280;59403;47.456;19.120;2023-02-01T00:45:01;100490.53;;;2.41;100.00
71567;BME280;59403;47.456;19.120;2023-02-01T00:47:28;100481.66;;;2.43;100.00
71567;BME280;59403;47.456;19.120;2023-02-01T00:49:57;100486.78;;;2.45;100.00
71567;BME280;59403;47.456;19.120;2023-02-01T00:52:24;100475.38;;;2.46;100.00
71567;BME280;59403;47.456;19.120;2023-02-01T00:54:51;100476.22;;;2.46;100.00
71567;BME280;59403;47.456;19.120;2023-02-01T00:57:17;100472.75;;;2.46;100.00
71567;BME280;59403;47.456;19.120;2023-02-01T00:59:44;100473.72;;;2.45;100.00
71567;BME280;59403;47.456;19.120;2023-02-01T01:02:11;100474.44;;;2.47;100.00
71567;BME280;59403;47.456;19.120;2023-02-01T01:04:39;100465.66;;;2.48;100.00
71567;BME280;59403;47.456;19.120;2023-02-01T01:07:08;100473.50;;;2.48;100.00
71567;BME280;59403;47.456;19.120;2023-02-01T01:09:34;100476.00;;;2.49;100.00
71567;BME280;59403;47.456;19.120;2023-02-01T01:12:04;100474.13;;;2.51;100.00
71567;BME280;59403;47.456;19.120;2023-02-01T01:14:31;100461.16;;;2.50;100.00
71567;BME280;59403;47.456;19.120;2023-02-01T01:16:58;100461.16;;;2.50;100.00
71567;BME280;59403;47.456;19.120;2023-02-01T01:19:25;100458.44;;;2.51;100.00
71567;BME280;59403;47.456;19.120;2023-02-01T01:21:52;100440.03;;;2.53;100.00
71567;BME280;59403;47.456;19.120;2023-02-01T01:24:20;100431.34;;;2.52;100.00
71567;BME280;59403;47.456;19.120;2023-02-01T01:26:47;100437.31;;;2.54;100.00
71567;BME280;59403;47.456;19.120;2023-02-01T01:29:14;100428.56;;;2.55;100.00
71567;BME280;59403;47.456;19.120;2023-02-01T01:31:41;100419.97;;;2.53;100.00
71567;BME280;59403;47.456;19.120;2023-02-01T01:34:08;100408.78;;;2.51;100.00
71567;BME280;59403;47.456;19.120;2023-02-01T01:36:35;100403.56;;;2.51;100.00
71567;BME280;59403;47.456;19.120;2023-02-01T01:39:02;100410.88;;;2.46;100.00
71567;BME280;59403;47.456;19.120;2023-02-01T01:41:31;100412.75;;;2.44;100.00
71567;BME280;59403;47.456;19.120;2023-02-01T01:44:00;100415.59;;;2.41;100.00
71567;BME280;59403;47.456;19.120;2023-02-01T01:46:29;100403.66;;;2.37;100.00
71567;BME280;59403;47.456;19.120;2023-02-01T01:49:01;100410.56;;;2.38;100.00
71567;BME280;59403;47.456;19.120;2023-02-01T01:51:31;100418.84;;;2.45;100.00
71567;BME280;59403;47.456;19.120;2023-02-01T01:54:03;100413.78;;;2.54;100.00
71567;BME280;59403;47.456;19.120;2023-02-01T01:56:34;100414.00;;;2.51;100.00
71567;BME280;59403;47.456;19.120;2023-02-01T01:59:02;100426.22;;;2.63;100.00
71567;BME280;59403;47.456;19.120;2023-02-01T02:04:46;100414.31;;;2.59;100.00
71567;BME280;59403;47.456;19.120;2023-02-01T02:07:16;100409.09;;;2.59;100.00
71567;BME280;59403;47.456;19.120;2023-02-01T02:09:45;100411.19;;;2.54;100.00
71567;BME280;59403;47.456;19.120;2023-02-01T02:12:15;100410.78;;;2.48;100.00
71567;BME280;59403;47.456;19.120;2023-02-01T02:14:42;100411.28;;;2.40;100.00
71567;BME280;59403;47.456;19.120;2023-02-01T02:17:23;100410.66;;;2.37;100.00
71567;BME280;59403;47.456;19.120;2023-02-01T02:20:22;100412.12;;;2.28;100.00
71567;BME280;59403;47.456;19.120;2023-02-01T02:23:08;100415.06;;;2.23;100.00
71567;BME280;59403;47.456;19.120;2023-02-01T02:26:02;100410.13;;;2.19;100.00
71567;BME280;59403;47.456;19.120;2023-02-01T02:32:03;100414.84;;;2.14;100.00
71567;BME280;59403;47.456;19.120;2023-02-01T02:34:40;100409.94;;;2.09;100.00
71567;BME280;59403;47.456;19.120;2023-02-01T02:37:17;100389.97;;;1.96;100.00
71567;BME280;59403;47.456;19.120;2023-02-01T02:39:52;100407.19;;;1.98;100.00
71567;BME280;59403;47.456;19.120;2023-02-01T02:42:25;100390.25;;;1.91;100.00
71567;BME280;59403;47.456;19.120;2023-02-01T02:45:17;100397.69;;;1.85;100.00
71567;BME280;59403;47.456;19.120;2023-02-01T02:48:08;100400.72;;;1.79;100.00
71567;BME280;59403;47.456;19.120;2023-02-01T02:50:43;100398.59;;;1.71;100.00
71567;BME280;59403;47.456;19.120;2023-02-01T02:53:32;100404.13;;;1.67;100.00
71567;BME280;59403;47.456;19.120;2023-02-01T02:56:21;100400.03;;;1.63;100.00
71567;BME280;59403;47.456;19.120;2023-02-01T02:59:07;100397.72;;;1.58;100.00
71567;BME280;59403;47.456;19.120;2023-02-01T03:01:53;100390.94;;;1.56;100.00
71567;BME280;59403;47.456;19.120;2023-02-01T03:04:38;100406.59;;;1.56;100.00
71567;BME280;59403;47.456;19.120;2023-02-01T03:07:14;100393.50;;;1.43;100.00
71567;BME280;59403;47.456;19.120;2023-02-01T03:09:44;100391.75;;;1.44;100.00
71567;BME280;59403;47.456;19.120;2023-02-01T03:12:15;100383.06;;;1.43;100.00
71567;BME280;59403;47.456;19.120;2023-02-01T03:15:05;100387.25;;;1.46;100.00
71567;BME280;59403;47.456;19.120;2023-02-01T03:17:38;100383.50;;;1.50;100.00
71567;BME280;59403;47.456;19.120;2023-02-01T03:20:07;100384.66;;;1.46;100.00
71567;BME280;59403;47.456;19.120;2023-02-01T03:22:38;100377.84;;;1.43;100.00
71567;BME280;59403;47.456;19.120;2023-02-01T03:25:10;100380.75;;;1.39;100.00
71567;BME280;59403;47.456;19.120;2023-02-01T03:27:45;100374.06;;;1.35;100.00
71567;BME280;59403;47.456;19.120;2023-02-01T03:30:20;100377.78;;;1.31;100.00
71567;BME280;59403;47.456;19.120;2023-02-01T03:32:55;100377.09;;;1.29;100.00
71567;BME280;59403;47.456;19.120;2023-02-01T03:35:28;100379.13;;;1.24;100.00
71567;BME280;59403;47.456;19.120;2023-02-01T03:38:02;100378.47;;;1.20;100.00
71567;BME280;59403;47.456;19.120;2023-02-01T03:40:35;100370.66;;;1.20;100.00
71567;BME280;59403;47.456;19.120;2023-02-01T03:43:05;100369.09;;;1.17;100.00
71567;BME280;59403;47.456;19.120;2023-02-01T03:45:36;100378.06;;;1.13;100.00
71567;BME280;59403;47.456;19.120;2023-02-01T03:48:06;100366.97;;;1.10;100.00
71567;BME280;59403;47.456;19.120;2023-02-01T03:50:35;100375.87;;;1.20;100.00
71567;BME280;59403;47.456;19.120;2023-02-01T03:53:09;100381.53;;;1.53;100.00
71567;BME280;59403;47.456;19.120;2023-02-01T03:55:39;100378.16;;;1.90;100.00
71567;BME280;59403;47.456;19.120;2023-02-01T03:58:09;100375.13;;;2.09;100.00
71567;BME280;59403;47.456;19.120;2023-02-01T04:00:42;100373.47;;;2.08;100.00
71567;BME280;59403;47.456;19.120;2023-02-01T04:03:10;100380.31;;;2.72;100.00
71567;BME280;59403;47.456;19.120;2023-02-01T04:05:37;100349.81;;;2.96;100.00
71567;BME280;59403;47.456;19.120;2023-02-01T04:08:07;100373.91;;;3.12;99.24
71567;BME280;59403;47.456;19.120;2023-02-01T04:10:33;100379.41;;;2.96;100.00
71567;BME280;59403;47.456;19.120;2023-02-01T04:13:00;100373.84;;;3.01;100.00
71567;BME280;59403;47.456;19.120;2023-02-01T04:15:27;100371.78;;;2.93;100.00
71567;BME280;59403;47.456;19.120;2023-02-01T04:17:54;100369.81;;;3.20;98.26
71567;BME280;59403;47.456;19.120;2023-02-01T04:20:21;100380.59;;;3.39;96.89
71567;BME280;59403;47.456;19.120;2023-02-01T04:22:48;100379.16;;;3.35;97.53
71567;BME280;59403;47.456;19.120;2023-02-01T04:25:17;100396.03;;;3.31;96.89
71567;BME280;59403;47.456;19.120;2023-02-01T04:27:43;100384.78;;;3.42;96.14
71567;BME280;59403;47.456;19.120;2023-02-01T04:30:11;100374.22;;;3.55;95.63
71567;BME280;59403;47.456;19.120;2023-02-01T04:32:39;100373.47;;;3.41;96.26
71567;BME280;59403;47.456;19.120;2023-02-01T04:35:07;100378.47;;;3.44;96.09
71567;BME280;59403;47.456;19.120;2023-02-01T04:37:34;100367.72;;;3.60;94.88
71567;BME280;59403;47.456;19.120;2023-02-01T04:40:01;100385.16;;;3.48;95.39
71567;BME280;59403;47.456;19.120;2023-02-01T04:42:30;100390.28;;;3.50;95.58
71567;BME280;59403;47.456;19.120;2023-02-01T04:44:57;100379.50;;;3.31;96.85
71567;BME280;59403;47.456;19.120;2023-02-01T04:47:24;100376.97;;;3.53;95.38
71567;BME280;59403;47.456;19.120;2023-02-01T04:49:51;100386.94;;;3.72;94.13
71567;BME280;59403;47.456;19.120;2023-02-01T04:52:18;100384.81;;;3.53;94.92
71567;BME280;59403;47.456;19.120;2023-02-01T04:54:45;100378.25;;;3.47;95.38
71567;BME280;59403;47.456;19.120;2023-02-01T04:57:12;100375.06;;;3.55;94.95
71567;BME280;59403;47.456;19.120;2023-02-01T04:59:41;100370.44;;;3.59;94.44
71567;BME280;59403;47.456;19.120;2023-02-01T05:02:08;100380.56;;;3.52;94.92
71567;BME280;59403;47.456;19.120;2023-02-01T05:04:35;100372.75;;;3.39;95.81
71567;BME280;59403;47.456;19.120;2023-02-01T05:07:02;100383.94;;;3.41;95.39
71567;BME280;59403;47.456;19.120;2023-02-01T05:09:29;100392.41;;;3.45;95.47
71567;BME280;59403;47.456;19.120;2023-02-01T05:11:56;100387.41;;;3.42;95.61
71567;BME280;59403;47.456;19.120;2023-02-01T05:14:42;100386.00;;;3.49;94.92
71567;BME280;59403;47.456;19.120;2023-02-01T05:17:09;100399.50;;;3.67;93.58
71567;BME280;59403;47.456;19.120;2023-02-01T05:22:03;100400.13;;;3.70;92.62
71567;BME280;59403;47.456;19.120;2023-02-01T05:24:29;100404.81;;;3.78;92.08
71567;BME280;59403;47.456;19.120;2023-02-01T05:26:56;100408.25;;;3.55;93.11
71567;BME280;59403;47.456;19.120;2023-02-01T05:29:23;100408.78;;;3.60;92.52
71567;BME280;59403;47.456;19.120;2023-02-01T05:31:51;100417.44;;;3.49;93.04
71567;BME280;59403;47.456;19.120;2023-02-01T05:34:18;100404.78;;;3.43;93.58
71567;BME280;59403;47.456;19.120;2023-02-01T05:36:45;100401.53;;;3.39;93.92
71567;BME280;59403;47.456;19.120;2023-02-01T05:39:12;100404.66;;;3.68;91.78
71567;BME280;59403;47.456;19.120;2023-02-01T05:41:39;100393.69;;;3.63;92.18
71567;BME280;59403;47.456;19.120;2023-02-01T05:44:06;100395.16;;;3.43;93.30
71567;BME280;59403;47.456;19.120;2023-02-01T05:46:34;100398.94;;;3.16;95.17
71567;BME280;59403;47.456;19.120;2023-02-01T05:49:03;100383.50;;;3.24;94.93
71567;BME280;59403;47.456;19.120;2023-02-01T05:51:30;100397.88;;;3.06;96.20
71567;BME280;59403;47.456;19.120;2023-02-01T05:53:57;100402.19;;;3.07;96.63
71567;BME280;59403;47.456;19.120;2023-02-01T05:56:23;100404.09;;;3.05;96.37
71567;BME280;59403;47.456;19.120;2023-02-01T05:58:51;100408.84;;;2.87;97.72
71567;BME280;59403;47.456;19.120;2023-02-01T06:01:18;100402.47;;;2.79;98.47
71567;BME280;59403;47.456;19.120;2023-02-01T06:03:45;100395.88;;;2.73;99.32
71567;BME280;59403;47.456;19.120;2023-02-01T06:06:13;100399.97;;;2.65;99.84
71567;BME280;59403;47.456;19.120;2023-02-01T06:08:40;100408.22;;;2.84;98.28
71567;BME280;59403;47.456;19.120;2023-02-01T06:11:07;100420.59;;;2.57;99.95
71567;BME280;59403;47.456;19.120;2023-02-01T06:13:34;100421.00;;;2.51;100.00
71567;BME280;59403;47.456;19.120;2023-02-01T06:16:01;100416.81;;;2.73;100.00
71567;BME280;59403;47.456;19.120;2023-02-01T06:18:28;100428.78;;;3.01;98.64
71567;BME280;59403;47.456;19.120;2023-02-01T06:20:57;100425.75;;;2.94;99.12
71567;BME280;59403;47.456;19.120;2023-02-01T06:23:26;100431.00;;;2.82;99.70
71567;BME280;59403;47.456;19.120;2023-02-01T06:25:58;100441.97;;;2.87;99.28
71567;BME280;59403;47.456;19.120;2023-02-01T06:28:26;100435.78;;;3.36;96.22
71567;BME280;59403;47.456;19.120;2023-02-01T06:30:53;100446.25;;;3.36;96.32
71567;BME280;59403;47.456;19.120;2023-02-01T06:33:20;100451.72;;;3.33;96.44
71567;BME280;59403;47.456;19.120;2023-02-01T06:35:46;100449.16;;;3.21;97.08
71567;BME280;59403;47.456;19.120;2023-02-01T06:38:14;100454.16;;;3.47;95.47
71567;BME280;59403;47.456;19.120;2023-02-01T06:40:42;100452.84;;;3.42;95.73
71567;BME280;59403;47.456;19.120;2023-02-01T06:43:09;100455.38;;;3.31;96.64
71567;BME280;59403;47.456;19.120;2023-02-01T06:45:35;100451.75;;;3.21;97.48
71567;BME280;59403;47.456;19.120;2023-02-01T06:48:02;100460.81;;;3.40;96.07
71567;BME280;59403;47.456;19.120;2023-02-01T06:50:29;100455.38;;;3.31;96.75
71567;BME280;59403;47.456;19.120;2023-02-01T06:52:56;100447.69;;;3.17;97.30
71567;BME280;59403;47.456;19.120;2023-02-01T06:55:23;100433.75;;;3.16;97.98
71567;BME280;59403;47.456;19.120;2023-02-01T06:57:54;100445.75;;;3.31;96.48
71567;BME280;59403;47.456;19.120;2023-02-01T07:00:22;100444.41;;;3.26;97.78
71567;BME280;59403;47.456;19.120;2023-02-01T07:02:49;100450.53;;;3.14;98.31
71567;BME280;59403;47.456;19.120;2023-02-01T07:05:16;100436.72;;;2.99;99.71
71567;BME280;59403;47.456;19.120;2023-02-01T07:07:43;100438.84;;;2.94;99.95
71567;BME280;59403;47.456;19.120;2023-02-01T07:10:10;100450.78;;;2.98;100.00
71567;BME280;59403;47.456;19.120;2023-02-01T07:12:37;100438.84;;;2.94;100.00
71567;BME280;59403;47.456;19.120;2023-02-01T07:15:07;100444.19;;;3.29;97.63
71567;BME280;59403;47.456;19.120;2023-02-01T07:17:34;100440.41;;;2.97;99.66
71567;BME280;59403;47.456;19.120;2023-02-01T07:20:01;100448.66;;;3.39;97.01
71567;BME280;59403;47.456;19.120;2023-02-01T07:22:28;100441.53;;;3.41;96.71
71567;BME280;59403;47.456;19.120;2023-02-01T07:24:55;100452.12;;;3.40;96.54
71567;BME280;59403;47.456;19.120;2023-02-01T07:27:21;100446.09;;;3.51;96.50
71567;BME280;59403;47.456;19.120;2023-02-01T07:29:50;100456.41;;;3.88;93.10
71567;BME280;59403;47.456;19.120;2023-02-01T07:32:19;100464.75;;;3.93;92.76
71567;BME280;59403;47.456;19.120;2023-02-01T07:34:46;100468.75;;;4.10;91.87
71567;BME280;59403;47.456;19.120;2023-02-01T07:37:12;100461.38;;;4.15;91.00
71567;BME280;59403;47.456;19.120;2023-02-01T07:39:40;100464.63;;;4.29;89.92
71567;BME280;59403;47.456;19.120;2023-02-01T07:42:06;100466.31;;;4.30;89.94
71567;BME280;59403;47.456;19.120;2023-02-01T07:44:33;100473.38;;;4.41;88.86
71567;BME280;59403;47.456;19.120;2023-02-01T07:47:00;100468.88;;;4.65;86.61
71567;BME280;59403;47.456;19.120;2023-02-01T07:49:29;100461.47;;;4.70;86.42
71567;BME280;59403;47.456;19.120;2023-02-01T07:51:55;100468.59;;;4.57;87.04
71567;BME280;59403;47.456;19.120;2023-02-01T07:54:22;100471.63;;;4.63;86.90
71567;BME280;59403;47.456;19.120;2023-02-01T07:56:49;100466.03;;;4.79;86.13
71567;BME280;59403;47.456;19.120;2023-02-01T07:59:16;100474.47;;;4.72;86.16
71567;BME280;59403;47.456;19.120;2023-02-01T08:01:43;100466.16;;;4.78;86.40
71567;BME280;59403;47.456;19.120;2023-02-01T08:04:11;100471.37;;;4.89;85.20
71567;BME280;59403;47.456;19.120;2023-02-01T08:06:40;100463.75;;;4.97;84.06
71567;BME280;59403;47.456;19.120;2023-02-01T08:09:07;100463.59;;;5.09;83.32
71567;BME280;59403;47.456;19.120;2023-02-01T08:11:35;100466.84;;;5.02;84.30
71567;BME280;59403;47.456;19.120;2023-02-01T08:14:03;100472.94;;;5.13;83.02
71567;BME280;59403;47.456;19.120;2023-02-01T08:16:31;100473.28;;;5.09;83.46
71567;BME280;59403;47.456;19.120;2023-02-01T08:18:59;100456.34;;;5.13;81.82
71567;BME280;59403;47.456;19.120;2023-02-01T08:21:27;100470.06;;;5.05;82.77
71567;BME280;59403;47.456;19.120;2023-02-01T08:24:03;100462.06;;;5.07;82.49
71567;BME280;59403;47.456;19.120;2023-02-01T08:26:31;100462.41;;;5.24;80.90
71567;BME280;59403;47.456;19.120;2023-02-01T08:29:00;100475.53;;;5.13;81.74
71567;BME280;59403;47.456;19.120;2023-02-01T08:31:29;100474.81;;;5.11;82.05
71567;BME280;59403;47.456;19.120;2023-02-01T08:53:29;100510.84;;;5.09;82.84
71567;BME280;59403;47.456;19.120;2023-02-01T08:55:56;100510.25;;;5.06;83.35
71567;BME280;59403;47.456;19.120;2023-02-01T08:58:23;100516.94;;;4.88;85.27
71567;BME280;59403;47.456;19.120;2023-02-01T09:00:50;100520.25;;;4.79;86.27
71567;BME280;59403;47.456;19.120;2023-02-01T09:03:17;100513.34;;;4.89;85.83
71567;BME280;59403;47.456;19.120;2023-02-01T09:05:44;100510.50;;;5.03;85.43
71567;BME280;59403;47.456;19.120;2023-02-01T09:08:11;100505.50;;;5.11;84.87
71567;BME280;59403;47.456;19.120;2023-02-01T09:10:42;100517.06;;;5.30;84.94
71567;BME280;59403;47.456;19.120;2023-02-01T09:13:09;100516.34;;;5.28;85.22
71567;BME280;59403;47.456;19.120;2023-02-01T09:15:37;100521.72;;;5.27;85.70
71567;BME280;59403;47.456;19.120;2023-02-01T09:18:04;100508.72;;;5.25;85.59
71567;BME280;59403;47.456;19.120;2023-02-01T09:20:31;100502.88;;;5.33;85.40
71567;BME280;59403;47.456;19.120;2023-02-01T09:22:58;100490.78;;;5.52;84.91
71567;BME280;59403;47.456;19.120;2023-02-01T09:25:26;100488.97;;;5.64;84.29
71567;BME280;59403;47.456;19.120;2023-02-01T09:27:55;100483.09;;;5.71;84.22
71567;BME280;59403;47.456;19.120;2023-02-01T09:30:22;100489.16;;;5.94;82.67
71567;BME280;59403;47.456;19.120;2023-02-01T09:32:49;100495.59;;;6.22;82.54
71567;BME280;59403;47.456;19.120;2023-02-01T09:35:15;100469.53;;;6.19;80.96
71567;BME280;59403;47.456;19.120;2023-02-01T09:37:43;100473.31;;;6.05;81.19
71567;BME280;59403;47.456;19.120;2023-02-01T09:40:12;100483.12;;;6.24;81.27
71567;BME280;59403;47.456;19.120;2023-02-01T09:45:36;100502.16;;;6.48;82.25
71567;BME280;59403;47.456;19.120;2023-02-01T09:48:11;100504.69;;;6.38;80.45
71567;BME280;59403;47.456;19.120;2023-02-01T09:50:43;100504.87;;;6.26;79.30
71567;BME280;59403;47.456;19.120;2023-02-01T09:53:17;100504.72;;;6.07;79.93
71567;BME280;59403;47.456;19.120;2023-02-01T09:55:49;100505.37;;;5.99;79.74
71567;BME280;59403;47.456;19.120;2023-02-01T09:58:19;100499.28;;;5.99;79.09
71567;BME280;59403;47.456;19.120;2023-02-01T10:00:52;100492.47;;;5.96;79.60
71567;BME280;59403;47.456;19.120;2023-02-01T10:03:20;100490.22;;;5.92;79.93
71567;BME280;59403;47.456;19.120;2023-02-01T10:06:16;100479.50;;;5.84;80.25
71567;BME280;59403;47.456;19.120;2023-02-01T10:09:12;100465.00;;;5.89;80.29
71567;BME280;59403;47.456;19.120;2023-02-01T10:11:50;100474.31;;;5.93;80.01
71567;BME280;59403;47.456;19.120;2023-02-01T10:14:44;100462.50;;;5.88;80.67
71567;BME280;59403;47.456;19.120;2023-02-01T10:17:23;100467.41;;;5.92;81.70
71567;BME280;59403;47.456;19.120;2023-02-01T10:20:02;100458.19;;;5.98;82.71
71567;BME280;59403;47.456;19.120;2023-02-01T10:22:39;100450.09;;;5.90;83.17
71567;BME280;59403;47.456;19.120;2023-02-01T10:25:14;100437.47;;;5.84;83.92
71567;BME280;59403;47.456;19.120;2023-02-01T10:27:45;100415.06;;;5.89;84.33
71567;BME280;59403;47.456;19.120;2023-02-01T10:30:18;100413.87;;;5.93;84.05
71567;BME280;59403;47.456;19.120;2023-02-01T10:32:47;100402.78;;;5.90;84.10
71567;BME280;59403;47.456;19.120;2023-02-01T10:35:18;100400.66;;;5.84;84.88
71567;BME280;59403;47.456;19.120;2023-02-01T10:37:47;100419.31;;;5.69;84.46
71567;BME280;59403;47.456;19.120;2023-02-01T10:40:18;100424.94;;;5.65;85.27
71567;BME280;59403;47.456;19.120;2023-02-01T10:42:47;100414.62;;;5.84;85.55
71567;BME280;59403;47.456;19.120;2023-02-01T10:45:17;100416.63;;;6.12;83.99
71567;BME280;59403;47.456;19.120;2023-02-01T10:47:47;100414.09;;;6.22;83.92
71567;BME280;59403;47.456;19.120;2023-02-01T10:50:19;100413.94;;;6.23;83.44
71567;BME280;59403;47.456;19.120;2023-02-01T10:52:54;100414.78;;;6.44;83.54
71567;BME280;59403;47.456;19.120;2023-02-01T10:55:30;100411.03;;;6.47;82.20
71567;BME280;59403;47.456;19.120;2023-02-01T10:57:59;100414.44;;;6.38;82.87
71567;BME280;59403;47.456;19.120;2023-02-01T11:00:27;100415.16;;;6.19;83.04
71567;BME280;59403;47.456;19.120;2023-02-01T11:02:56;100402.16;;;6.18;83.75
71567;BME280;59403;47.456;19.120;2023-02-01T11:05:24;100408.03;;;6.10;84.17
71567;BME280;59403;47.456;19.120;2023-02-01T11:07:53;100398.19;;;6.03;84.92
71567;BME280;59403;47.456;19.120;2023-02-01T11:10:36;100394.41;;;5.96;86.47
71567;BME280;59403;47.456;19.120;2023-02-01T11:13:04;100388.81;;;6.10;85.87
71567;BME280;59403;47.456;19.120;2023-02-01T11:15:31;100382.87;;;6.38;85.89
71567;BME280;59403;47.456;19.120;2023-02-01T11:18:15;100377.03;;;6.55;85.74
71567;BME280;59403;47.456;19.120;2023-02-01T11:20:42;100372.91;;;6.62;85.65
71567;BME280;59403;47.456;19.120;2023-02-01T11:23:15;100359.00;;;6.50;84.85
71567;BME280;59403;47.456;19.120;2023-02-01T11:25:48;100364.88;;;6.63;84.92
71567;BME280;59403;47.456;19.120;2023-02-01T11:28:16;100361.69;;;6.60;85.41
71567;BME280;59403;47.456;19.120;2023-02-01T11:30:45;100369.94;;;6.55;85.21
71567;BME280;59403;47.456;19.120;2023-02-01T11:33:16;100367.56;;;6.43;86.17
71567;BME280;59403;47.456;19.120;2023-02-01T11:35:44;100360.47;;;6.43;87.08
71567;BME280;59403;47.456;19.120;2023-02-01T11:38:21;100358.53;;;6.36;88.81
71567;BME280;59403;47.456;19.120;2023-02-01T11:40:49;100361.53;;;6.31;88.84
71567;BME280;59403;47.456;19.120;2023-02-01T11:43:22;100357.47;;;6.27;89.98
71567;BME280;59403;47.456;19.120;2023-02-01T11:45:54;100357.19;;;6.21;91.18
71567;BME280;59403;47.456;19.120;2023-02-01T11:48:25;100356.34;;;6.00;92.62
71567;BME280;59403;47.456;19.120;2023-02-01T11:51:10;100354.19;;;5.84;93.83
71567;BME280;59403;47.456;19.120;2023-02-01T11:54:01;100348.13;;;5.72;96.89
71567;BME280;59403;47.456;19.120;2023-02-01T11:56:35;100339.72;;;5.58;99.10
71567;BME280;59403;47.456;19.120;2023-02-01T11:59:16;100342.63;;;5.44;100.00
71567;BME280;59403;47.456;19.120;2023-02-01T12:02:09;100332.91;;;5.35;100.00
71567;BME280;59403;47.456;19.120;2023-02-01T12:04:56;100326.09;;;5.32;100.00
71567;BME280;59403;47.456;19.120;2023-02-01T12:07:40;100317.66;;;5.29;100.00
71567;BME280;59403;47.456;19.120;2023-02-01T12:10:23;100310.75;;;5.28;100.00
71567;BME280;59403;47.456;19.120;2023-02-01T12:13:01;100316.22;;;5.25;100.00
71567;BME280;59403;47.456;19.120;2023-02-01T12:15:43;100312.53;;;5.27;100.00
71567;BME280;59403;47.456;19.120;2023-02-01T12:18:51;100308.81;;;5.30;100.00
71567;BME280;59403;47.456;19.120;2023-02-01T12:21:42;100315.41;;;5.24;100.00
71567;BME280;59403;47.456;19.120;2023-02-01T12:27:35;100321.41;;;5.15;100.00
71567;BME280;59403;47.456;19.120;2023-02-01T12:30:34;100321.78;;;5.11;100.00
71567;BME280;59403;47.456;19.120;2023-02-01T12:33:10;100328.00;;;4.99;100.00
71567;BME280;59403;47.456;19.120;2023-02-01T12:35:47;100336.16;;;4.85;100.00
71567;BME280;59403;47.456;19.120;2023-02-01T12:38:50;100344.03;;;4.74;100.00
71567;BME280;59403;47.456;19.120;2023-02-01T12:44:12;100342.37;;;4.50;100.00
71567;BME280;59403;47.456;19.120;2023-02-01T12:46:46;100346.81;;;4.39;100.00
71567;BME280;59403;47.456;19.120;2023-02-01T12:49:17;100359.78;;;4.18;100.00
71567;BME280;59403;47.456;19.120;2023-02-01T12:51:48;100371.69;;;4.11;100.00
71567;BME280;59403;47.456;19.120;2023-02-01T12:54:20;100371.53;;;4.02;100.00
71567;BME280;59403;47.456;19.120;2023-02-01T12:56:51;100358.53;;;4.00;100.00
71567;BME280;59403;47.456;19.120;2023-02-01T12:59:25;100337.09;;;3.95;100.00
71567;BME280;59403;47.456;19.120;2023-02-01T13:01:58;100327.47;;;3.96;100.00
71567;BME280;59403;47.456;19.120;2023-02-01T13:04:31;100330.09;;;4.07;100.00
71567;BME280;59403;47.456;19.120;2023-02-01T13:07:06;100325.91;;;4.15;100.00
71567;BME280;59403;47.456;19.120;2023-02-01T13:09:42;100313.94;;;4.24;100.00
71567;BME280;59403;47.456;19.120;2023-02-01T13:12:15;100305.53;;;4.52;100.00
71567;BME280;59403;47.456;19.120;2023-02-01T13:14:46;100289.56;;;4.66;100.00
71567;BME280;59403;47.456;19.120;2023-02-01T13:17:19;100270.72;;;4.72;100.00
71567;BME280;59403;47.456;19.120;2023-02-01T13:19:52;100273.47;;;4.71;100.00
71567;BME280;59403;47.456;19.120;2023-02-01T13:22:25;100270.72;;;4.72;100.00
71567;BME280;59403;47.456;19.120;2023-02-01T13:24:58;100265.94;;;4.66;100.00
71567;BME280;59403;47.456;19.120;2023-02-01T13:27:27;100258.34;;;4.52;100.00
71567;BME280;59403;47.456;19.120;2023-02-01T13:29:58;100243.47;;;4.41;100.00
71567;BME280;59403;47.456;19.120;2023-02-01T13:32:48;100245.28;;;4.30;100.00
71567;BME280;59403;47.456;19.120;2023-02-01T13:38:50;100249.34;;;4.23;100.00
71567;BME280;59403;47.456;19.120;2023-02-01T13:41:28;100243.50;;;4.19;100.00
71567;BME280;59403;47.456;19.120;2023-02-01T13:43:59;100256.34;;;4.22;100.00
71567;BME280;59403;47.456;19.120;2023-02-01T13:46:27;100267.81;;;4.21;100.00